Time;durP1;ratioP1;P1;durP2;ratioP2;P2;SDS_P1;SDS_P2;PMS_P1;PMS_P2;Temp;Humidity;BMP_temperature;BMP_pressure;BME280_temperature;BME280_humidity;BME280_pressure;Samples;Min_cycle;Max_cycle;Signal;HPM_P1;HPM_P2
2022/01/08 00:01:59;;;;;;;27.17;16.92;;;3.20;94.10;;;;;;5024639;28;20559;-75
2022/01/08 00:04:25;;;;;;;31.13;17.50;;;3.20;94.10;;;;;;5026682;28;20442;-75
2022/01/08 00:06:51;;;;;;;24.95;18.83;;;3.20;94.00;;;;;;5030923;28;20081;-75
2022/01/08 00:09:16;;;;;;;28.48;18.70;;;3.20;94.00;;;;;;5030434;28;20036;-75
2022/01/08 00:11:42;;;;;;;28.42;18.38;;;3.20;94.00;;;;;;5032292;28;20029;-75
2022/01/08 00:14:10;;;;;;;27.13;16.83;;;3.20;94.00;;;;;;5030693;28;20383;-76
2022/01/08 00:16:39;;;;;;;31.50;18.77;;;3.20;93.90;;;;;;5028197;28;20025;-75
2022/01/08 00:19:05;;;;;;;29.13;19.55;;;3.10;93.80;;;;;;5025689;28;20025;-76
2022/01/08 00:21:30;;;;;;;28.65;20.48;;;3.10;93.90;;;;;;5024120;28;20439;-77
2022/01/08 00:23:56;;;;;;;31.52;20.92;;;3.10;94.00;;;;;;5020465;28;20193;-75
2022/01/08 00:26:22;;;;;;;30.27;20.48;;;3.00;94.00;;;;;;5023073;28;20776;-74
2022/01/08 00:28:47;;;;;;;35.42;21.02;;;3.00;94.10;;;;;;5032529;28;20030;-75
2022/01/08 00:31:13;;;;;;;34.78;20.45;;;3.00;94.10;;;;;;5024171;28;20112;-75
2022/01/08 00:33:40;;;;;;;31.88;19.65;;;3.00;94.10;;;;;;5030112;28;20026;-75
2022/01/08 00:36:06;;;;;;;27.17;18.60;;;2.90;94.10;;;;;;5027377;28;20013;-74
2022/01/08 00:38:33;;;;;;;37.80;21.08;;;2.90;94.10;;;;;;5028676;28;20041;-75
2022/01/08 00:40:59;;;;;;;33.78;20.05;;;2.90;94.10;;;;;;5028960;28;20017;-75
2022/01/08 00:43:25;;;;;;;30.90;19.20;;;2.90;94.20;;;;;;5029098;28;20357;-75
2022/01/08 00:45:51;;;;;;;39.65;22.55;;;2.90;94.10;;;;;;5027101;28;20036;-75
2022/01/08 00:48:17;;;;;;;34.97;22.33;;;2.90;94.10;;;;;;5029596;28;20033;-75
2022/01/08 00:50:43;;;;;;;48.20;24.05;;;2.90;94.20;;;;;;5029455;28;20049;-74
2022/01/08 00:53:09;;;;;;;34.88;23.23;;;2.80;94.30;;;;;;5028733;28;20500;-75
2022/01/08 00:55:34;;;;;;;33.13;21.20;;;2.80;94.30;;;;;;5028088;28;20464;-75
2022/01/08 00:58:00;;;;;;;31.25;22.33;;;2.80;94.40;;;;;;5029922;28;20041;-74
2022/01/08 01:00:26;;;;;;;35.47;21.60;;;2.80;94.50;;;;;;5028835;28;20018;-75
2022/01/08 01:02:53;;;;;;;31.40;21.63;;;2.80;94.50;;;;;;5029597;28;20093;-75
2022/01/08 01:05:19;;;;;;;36.38;22.02;;;2.80;94.50;;;;;;5029859;28;20368;-76
2022/01/08 01:07:45;;;;;;;31.05;22.08;;;2.80;94.50;;;;;;5028217;28;20463;-75
2022/01/08 01:10:11;;;;;;;31.80;23.30;;;;;;;;;;5029861;28;20057;-75
2022/01/08 01:12:38;;;;;;;33.70;21.58;;;2.70;94.20;;;;;;5028331;28;20064;-75
2022/01/08 01:15:05;;;;;;;34.25;20.38;;;2.70;94.50;;;;;;5030511;28;20014;-75
2022/01/08 01:17:31;;;;;;;35.35;23.80;;;2.70;94.40;;;;;;5028657;28;20030;-75
2022/01/08 01:19:57;;;;;;;34.92;22.30;;;2.70;94.50;;;;;;5029482;28;20083;-75
2022/01/08 01:22:28;;;;;;;39.70;24.55;;;2.70;94.50;;;;;;5029361;28;20086;-75
2022/01/08 01:25:00;;;;;;;34.72;21.67;;;2.60;94.60;;;;;;5029748;28;20506;-75
2022/01/08 01:27:55;;;;;;;34.47;22.70;;;2.60;94.60;;;;;;5027591;28;20852;-75
2022/01/08 01:30:37;;;;;;;38.33;21.40;;;2.60;94.70;;;;;;5024637;28;20025;-75
2022/01/08 01:42:17;;;;;;;32.50;22.80;;;2.50;94.60;;;;;;5027296;28;20029;-76
2022/01/08 01:47:05;;;;;;;37.50;21.67;;;2.40;94.80;;;;;;5029067;28;20184;-75
2022/01/08 01:49:38;;;;;;;31.08;21.63;;;2.40;94.90;;;;;;5028454;28;20014;-75
2022/01/08 01:52:06;;;;;;;34.08;21.65;;;2.40;95.20;;;;;;5028674;28;20060;-75
2022/01/08 01:54:33;;;;;;;36.75;22.40;;;2.40;95.00;;;;;;5028550;28;20052;-75
2022/01/08 01:57:00;;;;;;;31.80;20.75;;;2.40;95.00;;;;;;5029420;28;20368;-75
2022/01/08 01:59:26;;;;;;;33.55;21.25;;;2.30;95.00;;;;;;5028427;28;20480;-75
2022/01/08 02:01:52;;;;;;;34.13;20.40;;;2.40;95.00;;;;;;5027008;28;20029;-75
2022/01/08 02:04:18;;;;;;;38.15;23.88;;;2.30;95.00;;;;;;5028742;28;20036;-75
2022/01/08 02:06:44;;;;;;;35.20;21.63;;;2.30;94.90;;;;;;5027384;28;20067;-75
2022/01/08 02:09:10;;;;;;;30.80;21.45;;;2.30;94.90;;;;;;5026983;28;20013;-75
2022/01/08 02:11:58;;;;;;;39.28;21.13;;;2.30;95.00;;;;;;5028218;28;20037;-75
2022/01/08 02:14:24;;;;;;;30.52;21.20;;;2.20;94.90;;;;;;5028355;28;20032;-75
2022/01/08 02:16:49;;;;;;;32.67;21.52;;;2.20;94.90;;;;;;5027481;28;20045;-75
2022/01/08 02:19:15;;;;;;;41.55;22.77;;;2.20;94.80;;;;;;5023679;28;20078;-75
2022/01/08 02:21:53;;;;;;;33.38;21.92;;;2.20;94.80;;;;;;5026762;28;20040;-75
2022/01/08 02:24:19;;;;;;;36.08;20.90;;;2.20;94.80;;;;;;5026718;28;20076;-75
2022/01/08 02:26:45;;;;;;;35.28;22.85;;;2.20;94.80;;;;;;5028227;28;20391;-75
2022/01/08 02:29:21;;;;;;;34.78;21.67;;;2.10;94.70;;;;;;5027249;28;20052;-75
2022/01/08 02:32:00;;;;;;;32.17;21.23;;;2.10;94.70;;;;;;5026520;28;20491;-75
2022/01/08 02:34:27;;;;;;;33.40;22.27;;;2.10;94.70;;;;;;5027744;28;20065;-74
2022/01/08 02:36:53;;;;;;;39.88;22.77;;;2.10;94.60;;;;;;5027621;28;20079;-74
2022/01/08 02:39:19;;;;;;;37.03;22.95;;;2.20;94.50;;;;;;5027839;28;20017;-75
2022/01/08 02:41:45;;;;;;;32.78;21.90;;;2.20;94.50;;;;;;5026433;28;20029;-75
2022/01/08 02:44:11;;;;;;;42.38;23.15;;;2.20;94.50;;;;;;5028115;28;20029;-74
2022/01/08 02:46:41;;;;;;;34.22;23.17;;;2.10;94.40;;;;;;5027786;28;20041;-75
2022/01/08 02:49:07;;;;;;;32.05;22.98;;;2.10;94.30;;;;;;5028490;28;20116;-76
2022/01/08 02:51:37;;;;;;;37.67;23.92;;;2.10;94.30;;;;;;5027373;28;20144;-75
2022/01/08 02:54:06;;;;;;;36.35;22.20;;;2.10;94.50;;;;;;5028144;28;20380;-75
2022/01/08 02:56:31;;;;;;;35.80;23.42;;;2.10;94.70;;;;;;5027083;28;20031;-75
2022/01/08 02:59:03;;;;;;;38.40;22.40;;;2.10;94.80;;;;;;5028164;28;20029;-75
2022/01/08 03:01:28;;;;;;;33.70;23.08;;;2.20;94.80;;;;;;5028054;28;20076;-75
2022/01/08 03:03:56;;;;;;;35.78;23.50;;;2.20;94.70;;;;;;5028114;28;20491;-74
2022/01/08 03:06:22;;;;;;;40.22;22.63;;;2.20;94.80;;;;;;5028131;28;20029;-75
2022/01/08 03:08:47;;;;;;;35.03;22.83;;;2.20;94.90;;;;;;5027903;28;20136;-73
2022/01/08 03:11:13;;;;;;;36.03;24.30;;;2.20;95.00;;;;;;5027719;28;20049;-74
2022/01/08 03:13:39;;;;;;;64.40;29.95;;;2.20;95.00;;;;;;5028555;28;20388;-74
2022/01/08 03:16:04;;;;;;;54.05;29.02;;;2.30;95.00;;;;;;5028503;28;20022;-75
2022/01/08 03:18:30;;;;;;;56.03;29.73;;;2.30;95.00;;;;;;5027465;28;20479;-75
2022/01/08 03:21:14;;;;;;;104.63;42.72;;;2.30;95.00;;;;;;5026623;28;20039;-75
2022/01/08 03:23:49;;;;;;;43.08;23.73;;;2.40;95.00;;;;;;5028112;28;20017;-74
2022/01/08 03:26:21;;;;;;;34.35;20.27;;;2.40;95.00;;;;;;5028041;28;20031;-76
2022/01/08 03:28:47;;;;;;;34.13;20.70;;;2.40;94.90;;;;;;5027889;28;20037;-76
2022/01/08 03:31:13;;;;;;;29.70;19.23;;;2.40;94.90;;;;;;5027410;28;20084;-76
2022/01/08 03:33:39;;;;;;;59.53;28.73;;;2.40;94.80;;;;;;5028993;28;20514;-75
2022/01/08 03:36:05;;;;;;;51.38;29.58;;;2.50;94.90;;;;;;5031025;28;20018;-75
2022/01/08 03:38:32;;;;;;;54.97;28.17;;;2.50;94.80;;;;;;5031021;28;20474;-75
2022/01/08 03:40:58;;;;;;;47.17;25.88;;;2.50;94.70;;;;;;5031206;28;20100;-76
2022/01/08 03:43:24;;;;;;;35.55;21.35;;;2.50;94.70;;;;;;5029833;28;20087;-75
2022/01/08 03:45:50;;;;;;;30.20;19.67;;;2.50;94.60;;;;;;5031391;28;20061;-75
2022/01/08 03:48:25;;;;;;;40.97;22.65;;;2.50;94.60;;;;;;5030272;28;20080;-76
2022/01/08 03:50:51;;;;;;;31.88;21.83;;;2.50;94.50;;;;;;5030736;28;20045;-74
2022/01/08 03:53:16;;;;;;;37.28;22.60;;;2.50;94.50;;;;;;5030840;28;20511;-73
2022/01/08 03:55:42;;;;;;;38.55;21.88;;;2.50;94.40;;;;;;5030693;28;20022;-75
2022/01/08 03:58:07;;;;;;;29.55;18.80;;;2.50;94.40;;;;;;5030415;28;20030;-74
2022/01/08 04:00:33;;;;;;;30.23;19.75;;;2.50;94.30;;;;;;5031015;28;20025;-71
2022/01/08 04:02:59;;;;;;;31.00;20.65;;;2.50;94.20;;;;;;5030851;28;20455;-74
2022/01/08 04:05:24;;;;;;;31.38;19.88;;;2.50;94.20;;;;;;5030294;28;20030;-71
2022/01/08 04:07:50;;;;;;;29.40;18.83;;;2.50;94.30;;;;;;5029192;28;20386;-73
2022/01/08 04:10:15;;;;;;;33.42;20.63;;;2.40;94.20;;;;;;5030230;28;20022;-76
2022/01/08 04:12:45;;;;;;;30.20;19.13;;;2.40;94.20;;;;;;5030445;28;20057;-75
2022/01/08 04:17:50;;;;;;;30.50;16.83;;;2.40;94.30;;;;;;5030040;28;20140;-74
2022/01/08 04:20:17;;;;;;;29.98;18.38;;;2.30;94.30;;;;;;5030743;28;20483;-75
2022/01/08 04:22:44;;;;;;;34.22;18.60;;;2.30;94.20;;;;;;5030483;28;20052;-75
2022/01/08 04:25:11;;;;;;;34.47;18.60;;;2.30;94.30;;;;;;5029656;28;20017;-74
2022/01/08 04:27:37;;;;;;;28.45;16.90;;;2.30;94.30;;;;;;5029940;28;20099;-74
2022/01/08 04:30:04;;;;;;;28.10;16.73;;;2.30;94.30;;;;;;5030376;28;20475;-75
2022/01/08 04:32:29;;;;;;;30.75;17.52;;;2.30;94.20;;;;;;5030026;28;20063;-75
2022/01/08 04:34:55;;;;;;;38.63;19.45;;;2.30;94.30;;;;;;5029859;28;20543;-75
2022/01/08 04:37:21;;;;;;;24.90;16.33;;;2.20;94.30;;;;;;5029628;28;20033;-74
2022/01/08 04:39:46;;;;;;;25.70;17.20;;;2.20;94.30;;;;;;5027954;28;20033;-75
2022/01/08 04:42:12;;;;;;;30.30;18.23;;;2.20;94.30;;;;;;5029073;28;20053;-76
2022/01/08 04:44:37;;;;;;;24.13;16.88;;;2.20;94.20;;;;;;5028708;28;20049;-76
2022/01/08 04:47:03;;;;;;;30.52;18.38;;;2.20;94.30;;;;;;5030791;28;20057;-76
2022/01/08 04:49:29;;;;;;;28.05;16.05;;;2.20;94.20;;;;;;5029844;28;20105;-76
2022/01/08 04:51:54;;;;;;;31.27;17.40;;;2.10;94.20;;;;;;5029843;28;20057;-76
2022/01/08 04:54:21;;;;;;;25.73;16.05;;;2.10;94.10;;;;;;5030275;28;20025;-76
2022/01/08 04:56:49;;;;;;;24.45;15.65;;;2.10;94.10;;;;;;5030293;28;20510;-75
2022/01/08 04:59:15;;;;;;;29.50;16.17;;;2.10;94.10;;;;;;5028909;28;20052;-75
2022/01/08 05:01:42;;;;;;;26.27;16.67;;;2.00;94.00;;;;;;5030293;28;20662;-76
2022/01/08 05:04:08;;;;;;;27.88;16.38;;;2.00;94.00;;;;;;5030051;28;20028;-76
2022/01/08 05:06:33;;;;;;;31.15;15.88;;;2.00;94.10;;;;;;5027998;28;20033;-76
2022/01/08 05:08:59;;;;;;;23.50;15.38;;;2.00;94.20;;;;;;5029646;28;20018;-74
2022/01/08 05:11:27;;;;;;;27.00;16.67;;;2.00;94.30;;;;;;5029752;28;20038;-76
2022/01/08 05:13:53;;;;;;;30.23;16.65;;;2.00;94.30;;;;;;5029778;28;20080;-76
2022/01/08 05:16:23;;;;;;;27.05;17.15;;;2.00;94.20;;;;;;5029380;28;20017;-75
2022/01/08 05:18:51;;;;;;;27.27;15.27;;;2.00;94.20;;;;;;5029283;28;20087;-75
2022/01/08 05:21:24;;;;;;;34.10;16.85;;;2.00;94.30;;;;;;5028682;28;20037;-74
2022/01/08 05:23:53;;;;;;;27.60;14.65;;;2.00;94.40;;;;;;5029213;28;20021;-75
2022/01/08 05:26:19;;;;;;;27.80;15.60;;;2.00;94.40;;;;;;5029705;28;20087;-75
2022/01/08 05:28:45;;;;;;;24.83;14.63;;;2.00;94.40;;;;;;5029721;28;20026;-75
2022/01/08 05:31:12;;;;;;;28.55;15.80;;;1.90;94.30;;;;;;5029363;28;20051;-76
2022/01/08 05:33:38;;;;;;;28.70;15.55;;;2.00;94.30;;;;;;5019898;28;20056;-76
2022/01/08 05:36:04;;;;;;;35.42;15.65;;;1.90;94.30;;;;;;5029076;28;20017;-75
2022/01/08 05:38:29;;;;;;;30.65;15.75;;;1.90;94.20;;;;;;5020371;28;20033;-75
2022/01/08 05:40:55;;;;;;;27.92;15.50;;;1.90;94.20;;;;;;5024445;28;20190;-75
2022/01/08 05:43:22;;;;;;;28.50;14.60;;;1.90;94.20;;;;;;5026040;28;20029;-75
2022/01/08 05:45:48;;;;;;;22.48;14.70;;;1.90;94.30;;;;;;5022205;28;20143;-75
2022/01/08 05:48:15;;;;;;;24.15;15.70;;;1.90;94.30;;;;;;5028519;28;20112;-76
2022/01/08 05:50:40;;;;;;;28.08;14.93;;;1.90;94.30;;;;;;5027844;28;20144;-75
2022/01/08 05:53:06;;;;;;;26.95;15.43;;;1.90;94.20;;;;;;5022237;28;20120;-75
2022/01/08 05:55:32;;;;;;;33.53;16.58;;;1.80;94.20;;;;;;5025190;28;20794;-75
2022/01/08 05:57:57;;;;;;;25.38;14.85;;;1.80;94.20;;;;;;5028185;28;20025;-75
2022/01/08 06:00:23;;;;;;;24.60;13.27;;;1.80;94.20;;;;;;5029365;28;20029;-76
2022/01/08 06:02:51;;;;;;;25.73;15.65;;;1.80;94.20;;;;;;5028376;28;20407;-75
2022/01/08 06:05:16;;;;;;;26.42;15.48;;;1.80;94.20;;;;;;5026582;28;20056;-75
2022/01/08 06:07:42;;;;;;;31.88;15.85;;;1.80;94.30;;;;;;5028439;28;20506;-75
2022/01/08 06:10:08;;;;;;;22.55;13.73;;;1.80;94.30;;;;;;5029362;28;20028;-76
2022/01/08 06:12:34;;;;;;;22.13;14.77;;;1.80;94.50;;;;;;5028468;28;20788;-76
2022/01/08 06:14:59;;;;;;;29.85;15.73;;;1.80;94.30;;;;;;5028538;28;20021;-76
2022/01/08 06:17:25;;;;;;;27.33;14.88;;;1.80;94.20;;;;;;5027586;28;20022;-74
2022/01/08 06:19:50;;;;;;;25.00;14.07;;;1.80;94.40;;;;;;5028027;28;20022;-73
2022/01/08 06:22:16;;;;;;;25.20;13.43;;;1.80;94.30;;;;;;5027841;28;20044;-73
2022/01/08 06:24:42;;;;;;;33.70;14.77;;;1.70;94.40;;;;;;5027627;28;20079;-73
2022/01/08 06:27:08;;;;;;;26.83;14.15;;;1.70;94.40;;;;;;5027071;28;20032;-74
2022/01/08 06:29:34;;;;;;;26.90;13.98;;;1.70;94.40;;;;;;5027983;28;20430;-74
2022/01/08 06:31:59;;;;;;;23.70;13.45;;;1.70;94.50;;;;;;5027627;28;20041;-75
2022/01/08 06:34:25;;;;;;;23.75;13.32;;;1.70;94.50;;;;;;5027625;28;20025;-75
2022/01/08 06:36:51;;;;;;;27.42;13.38;;;1.70;94.40;;;;;;5027378;28;20025;-74
2022/01/08 06:39:18;;;;;;;29.52;13.60;;;1.70;94.40;;;;;;5026696;28;20081;-74
2022/01/08 06:41:43;;;;;;;27.20;13.15;;;1.70;94.40;;;;;;5027841;28;20499;-74
2022/01/08 06:44:11;;;;;;;34.42;14.35;;;1.70;94.40;;;;;;5025862;28;20017;-74
2022/01/08 06:46:37;;;;;;;27.15;15.13;;;1.70;94.40;;;;;;5027057;28;20609;-74
2022/01/08 06:49:02;;;;;;;29.83;13.63;;;1.70;94.40;;;;;;5026770;28;20029;-74
2022/01/08 06:51:28;;;;;;;27.02;14.88;;;1.70;94.40;;;;;;5026917;28;20056;-74
2022/01/08 06:53:53;;;;;;;27.67;14.02;;;1.70;94.40;;;;;;5026644;28;20032;-74
2022/01/08 06:56:19;;;;;;;26.17;13.27;;;1.70;94.40;;;;;;5027194;28;20021;-76
2022/01/08 06:58:46;;;;;;;23.55;13.35;;;1.70;94.50;;;;;;5027001;28;20025;-75
2022/01/08 07:01:12;;;;;;;25.75;13.35;;;1.70;94.50;;;;;;5027042;28;20109;-76
2022/01/08 07:03:37;;;;;;;28.40;14.13;;;1.70;94.40;;;;;;5026754;28;20101;-75
2022/01/08 07:06:04;;;;;;;27.60;12.27;;;1.70;94.50;;;;;;5027319;28;20546;-76
2022/01/08 07:08:29;;;;;;;29.67;13.13;;;1.70;94.50;;;;;;5029694;28;20049;-75
2022/01/08 07:10:55;;;;;;;26.33;13.27;;;1.70;94.60;;;;;;5031195;28;20487;-77
2022/01/08 07:13:21;;;;;;;22.58;14.07;;;1.70;94.60;;;;;;5031541;28;20068;-76
2022/01/08 07:15:46;;;;;;;27.92;13.55;;;1.70;94.70;;;;;;5031398;28;20029;-76
2022/01/08 07:18:12;;;;;;;25.20;14.00;;;1.70;94.70;;;;;;5029888;28;20029;-76
2022/01/08 07:20:37;;;;;;;25.77;14.27;;;1.70;94.70;;;;;;5031217;28;20121;-75
2022/01/08 07:23:03;;;;;;;29.77;13.73;;;1.70;94.80;;;;;;5030481;28;20026;-75
2022/01/08 07:25:28;;;;;;;27.70;14.55;;;1.70;94.80;;;;;;5029177;28;20029;-74
2022/01/08 07:27:54;;;;;;;31.52;15.30;;;1.70;94.90;;;;;;5027320;28;20027;-75
2022/01/08 07:30:20;;;;;;;34.25;14.77;;;1.70;94.90;;;;;;5024701;28;20037;-75
2022/01/08 07:32:48;;;;;;;32.80;14.55;;;1.80;94.90;;;;;;5028358;28;20559;-74
2022/01/08 07:35:18;;;;;;;31.23;16.23;;;1.80;94.90;;;;;;5028247;28;20646;-75
2022/01/08 07:37:44;;;;;;;;;;;1.80;94.80;;;;;;5028830;28;20147;-75
2022/01/08 07:40:12;;;;;;;25.20;15.70;;;1.80;94.90;;;;;;5028377;28;20335;-75
2022/01/08 07:42:39;;;;;;;32.60;16.75;;;1.90;95.60;;;;;;5028615;28;20472;-75
2022/01/08 07:45:09;;;;;;;28.13;15.05;;;1.90;95.00;;;;;;5027816;28;20033;-75
2022/01/08 07:47:35;;;;;;;;;;;1.80;94.90;;;;;;5029372;28;20021;-74
2022/01/08 07:50:01;;;;;;;29.15;16.67;;;1.80;94.90;;;;;;5028286;28;19956;-75
2022/01/08 07:52:27;;;;;;;32.83;16.98;;;1.80;94.90;;;;;;5028305;28;20057;-77
2022/01/08 07:54:52;;;;;;;34.70;16.42;;;1.90;95.00;;;;;;5028247;28;20032;-76
2022/01/08 07:57:18;;;;;;;35.58;17.98;;;1.90;95.00;;;;;;5027891;28;20036;-77
2022/01/08 07:59:44;;;;;;;34.35;18.20;;;1.90;95.70;;;;;;5027969;28;20029;-77
2022/01/08 08:02:10;;;;;;;49.42;20.77;;;1.90;95.30;;;;;;5027347;28;20033;-77
2022/01/08 08:04:35;;;;;;;38.78;20.45;;;1.90;95.30;;;;;;5026588;28;20078;-76
2022/01/08 08:07:01;;;;;;;32.72;18.45;;;1.90;95.30;;;;;;5027112;28;20025;-76
2022/01/08 08:09:27;;;;;;;37.20;19.20;;;2.00;95.30;;;;;;5027468;28;20029;-76
2022/01/08 08:11:52;;;;;;;33.10;17.92;;;2.00;95.30;;;;;;5026621;28;20037;-75
2022/01/08 08:14:18;;;;;;;36.95;19.15;;;2.10;95.30;;;;;;5015049;28;20044;-75
2022/01/08 08:16:43;;;;;;;33.10;17.55;;;2.10;95.30;;;;;;5022704;28;20021;-76
2022/01/08 08:19:09;;;;;;;33.15;19.08;;;2.20;95.20;;;;;;5016007;28;20026;-76
2022/01/08 08:21:34;;;;;;;34.08;18.50;;;2.20;95.10;;;;;;5024328;28;20028;-75
2022/01/08 08:24:05;;;;;;;34.17;18.38;;;2.30;95.10;;;;;;5020714;28;20025;-75
2022/01/08 08:26:33;;;;;;;31.00;17.27;;;2.30;95.10;;;;;;5024599;28;20375;-76
2022/01/08 08:28:59;;;;;;;37.55;16.95;;;2.40;95.10;;;;;;5018812;28;20017;-75
2022/01/08 08:31:24;;;;;;;32.80;16.95;;;2.40;95.00;;;;;;5021372;28;20389;-75
2022/01/08 08:33:50;;;;;;;23.15;15.88;;;2.50;95.20;;;;;;5022956;28;20140;-76
2022/01/08 08:36:16;;;;;;;28.02;17.88;;;2.50;95.00;;;;;;5021448;28;20037;-76
2022/01/08 08:38:42;;;;;;;26.27;17.65;;;2.50;95.00;;;;;;5023560;28;20495;-76
2022/01/08 08:41:08;;;;;;;31.50;18.48;;;2.50;94.90;;;;;;5021842;28;20034;-75
2022/01/08 08:43:34;;;;;;;24.10;15.48;;;2.50;94.90;;;;;;5024009;28;20091;-75
2022/01/08 08:46:01;;;;;;;28.35;17.15;;;2.50;95.10;;;;;;5022447;28;20104;-76
2022/01/08 08:48:27;;;;;;;30.50;18.38;;;2.50;95.00;;;;;;5030434;28;20060;-75
2022/01/08 08:50:53;;;;;;;32.10;18.05;;;2.50;95.00;;;;;;5030005;28;20045;-76
2022/01/08 08:53:18;;;;;;;27.38;16.60;;;2.50;95.10;;;;;;5026266;28;20010;-75
2022/01/08 08:55:44;;;;;;;28.58;17.58;;;2.50;96.00;;;;;;5028635;28;20066;-74
2022/01/08 08:58:10;;;;;;;28.60;17.25;;;2.60;95.50;;;;;;5023791;28;20122;-74
2022/01/08 09:00:35;;;;;;;32.15;18.50;;;2.60;95.40;;;;;;5024794;28;20045;-75
2022/01/08 09:03:01;;;;;;;35.80;18.70;;;2.50;95.20;;;;;;5027025;28;20060;-75
2022/01/08 09:05:27;;;;;;;29.98;19.40;;;2.50;95.20;;;;;;5020032;28;20025;-76
2022/01/08 09:07:52;;;;;;;34.80;21.35;;;2.50;95.20;;;;;;5023481;28;20414;-75
2022/01/08 09:10:23;;;;;;;30.48;17.63;;;2.50;95.40;;;;;;5029479;28;20026;-76
2022/01/08 09:12:49;;;;;;;28.13;18.30;;;2.50;95.40;;;;;;5028200;28;20777;-75
2022/01/08 09:15:15;;;;;;;26.83;18.90;;;2.50;95.50;;;;;;5029306;28;20036;-75
2022/01/08 09:17:42;;;;;;;26.02;16.25;;;2.60;95.50;;;;;;5028094;28;20045;-74
2022/01/08 09:20:09;;;;;;;33.78;18.77;;;2.60;95.80;;;;;;5029691;28;20408;-75
2022/01/08 09:22:35;;;;;;;32.22;18.48;;;2.60;95.50;;;;;;5029008;28;20032;-75
2022/01/08 09:25:01;;;;;;;27.65;18.50;;;2.60;95.50;;;;;;5030113;28;20022;-76
2022/01/08 09:27:26;;;;;;;31.10;18.27;;;2.60;95.50;;;;;;5029840;28;20495;-75
2022/01/08 09:29:54;;;;;;;30.83;18.50;;;2.70;96.50;;;;;;5033206;28;20033;-75
2022/01/08 09:32:23;;;;;;;33.03;17.73;;;2.70;95.80;;;;;;5027370;28;20049;-75
2022/01/08 09:34:49;;;;;;;29.85;17.10;;;2.60;95.60;;;;;;5027696;28;20032;-75
2022/01/08 09:37:15;;;;;;;31.77;16.40;;;2.70;95.80;;;;;;5029108;28;20057;-74
2022/01/08 09:39:41;;;;;;;36.92;17.13;;;2.70;95.80;;;;;;5029044;28;20048;-75
2022/01/08 09:42:10;;;;;;;37.15;16.08;;;2.70;95.70;;;;;;5029198;28;20826;-75
2022/01/08 09:44:39;;;;;;;24.23;15.53;;;2.80;96.00;;;;;;5026763;28;20033;-75
2022/01/08 09:47:05;;;;;;;29.45;15.98;;;2.80;95.70;;;;;;5028280;28;20013;-75
2022/01/08 09:49:32;;;;;;;27.63;14.15;;;2.90;96.50;;;;;;5029307;28;20521;-71
2022/01/08 09:51:57;;;;;;;25.48;15.43;;;2.90;95.70;;;;;;5028566;28;20494;-69
2022/01/08 09:54:24;;;;;;;28.58;17.67;;;2.90;95.40;;;;;;5039132;28;20013;-70
2022/01/08 09:56:50;;;;;;;30.17;16.10;;;3.00;95.60;;;;;;5035924;28;20462;-69
2022/01/08 09:59:16;;;;;;;30.55;15.13;;;3.00;96.00;;;;;;5039746;28;20128;-68
2022/01/08 10:01:42;;;;;;;25.23;14.30;;;3.00;95.80;;;;;;5026243;28;20026;-69
2022/01/08 10:04:07;;;;;;;24.52;14.57;;;3.10;96.50;;;;;;5025333;28;20103;-69
2022/01/08 10:06:36;;;;;;;25.23;14.15;;;3.10;96.10;;;;;;5025273;28;20079;-68
2022/01/08 10:09:04;;;;;;;26.58;15.45;;;3.10;96.00;;;;;;5022965;28;20033;-69
2022/01/08 10:11:30;;;;;;;27.25;14.48;;;3.20;96.90;;;;;;5025897;28;20400;-68
2022/01/08 10:14:02;;;;;;;32.92;16.23;;;3.20;96.80;;;;;;5026908;28;20037;-69
2022/01/08 10:19:26;;;;;;;25.67;13.38;;;3.20;95.90;;;;;;5021161;28;20102;-71
2022/01/08 10:21:52;;;;;;;26.05;16.50;;;3.20;96.80;;;;;;5024898;28;20108;-67
2022/01/08 10:24:26;;;;;;;25.40;13.50;;;3.30;97.10;;;;;;5027090;28;20083;-67
2022/01/08 10:27:02;;;;;;;30.70;17.40;;;3.30;97.60;;;;;;5027689;28;20479;-69
2022/01/08 10:29:27;;;;;;;28.95;17.75;;;3.30;96.10;;;;;;5019223;28;20084;-69
2022/01/08 10:31:54;;;;;;;30.33;15.40;;;3.30;96.30;;;;;;5025850;28;20332;-68
2022/01/08 10:34:26;;;;;;;30.00;17.73;;;3.40;96.70;;;;;;5030256;28;20364;-69
2022/01/08 10:36:55;;;;;;;30.35;17.50;;;3.30;96.30;;;;;;5026041;28;20017;-69
2022/01/08 10:39:33;;;;;;;32.72;18.25;;;3.40;96.20;;;;;;5026079;28;20448;-69
2022/01/08 10:42:21;;;;;;;27.88;16.05;;;3.40;96.30;;;;;;5023258;28;20049;-69
2022/01/08 10:44:50;;;;;;;23.63;14.85;;;3.50;96.50;;;;;;5019026;28;20031;-70
2022/01/08 10:47:21;;;;;;;26.95;13.75;;;3.60;96.20;;;;;;5016352;28;20033;-68
2022/01/08 10:49:56;;;;;;;23.58;13.18;;;3.70;96.30;;;;;;5024061;28;20033;-68
2022/01/08 10:52:22;;;;;;;23.45;15.57;;;3.80;96.80;;;;;;5020622;28;20112;-67
2022/01/08 10:55:00;;;;;;;25.00;15.20;;;3.90;96.40;;;;;;5021060;28;20132;-68
2022/01/08 10:57:34;;;;;;;24.58;13.55;;;3.90;95.60;;;;;;5019465;28;20041;-66
2022/01/08 11:00:00;;;;;;;23.30;14.60;;;4.00;96.20;;;;;;5018756;28;20029;-67
2022/01/08 11:02:28;;;;;;;31.67;14.80;;;4.00;95.50;;;;;;5019375;28;20025;-67
2022/01/08 11:04:55;;;;;;;31.52;16.60;;;4.20;96.10;;;;;;5018494;28;20824;-66
2022/01/08 11:07:32;;;;;;;26.60;15.80;;;4.20;95.40;;;;;;5014665;28;20026;-66
2022/01/08 11:10:02;;;;;;;35.42;15.45;;;4.20;95.30;;;;;;5018781;28;20067;-68
2022/01/08 11:12:34;;;;;;;36.90;17.13;;;4.10;95.00;;;;;;5019288;28;20854;-67
2022/01/08 11:15:24;;;;;;;25.60;15.68;;;4.20;95.80;;;;;;5019424;28;20014;-68
2022/01/08 11:17:57;;;;;;;29.48;17.75;;;4.20;95.60;;;;;;5022197;28;20026;-69
2022/01/08 11:20:30;;;;;;;32.22;18.42;;;4.10;95.30;;;;;;5026112;28;20017;-70
2022/01/08 11:22:59;;;;;;;34.67;18.42;;;4.10;94.50;;;;;;5025405;28;20029;-72
2022/01/08 11:25:46;;;;;;;29.38;17.65;;;4.10;95.90;;;;;;5029070;28;20048;-74
2022/01/08 11:28:14;;;;;;;33.30;20.17;;;4.10;96.10;;;;;;5029802;28;20021;-73
2022/01/08 11:30:51;;;;;;;31.85;18.17;;;4.00;95.60;;;;;;5030362;28;20022;-73
2022/01/08 11:33:26;;;;;;;32.83;18.40;;;4.00;95.80;;;;;;5020166;28;20053;-73
2022/01/08 11:35:54;;;;;;;31.20;18.83;;;4.10;96.20;;;;;;5028885;28;20060;-74
2022/01/08 11:38:22;;;;;;;30.10;16.52;;;4.20;95.40;;;;;;5027369;28;20025;-74
2022/01/08 11:40:52;;;;;;;30.58;17.83;;;4.20;96.10;;;;;;5026981;28;20030;-74
2022/01/08 11:43:23;;;;;;;38.35;19.58;;;4.30;95.90;;;;;;5026866;28;20061;-74
2022/01/08 11:45:53;;;;;;;29.90;14.48;;;4.50;97.10;;;;;;5027581;28;20037;-73
2022/01/08 11:48:23;;;;;;;29.90;16.73;;;4.50;98.00;;;;;;5027624;28;20026;-75
2022/01/08 11:50:50;;;;;;;31.77;15.00;;;4.60;97.60;;;;;;5021983;28;20050;-74
2022/01/08 11:53:22;;;;;;;29.02;16.10;;;4.60;98.40;;;;;;5024869;28;20469;-74
2022/01/08 11:55:53;;;;;;;33.55;16.33;;;4.60;98.20;;;;;;5024848;28;20419;-72
2022/01/08 11:58:23;;;;;;;28.80;15.10;;;4.70;97.10;;;;;;5032080;28;20079;-74
2022/01/08 12:01:21;;;;;;;28.17;14.32;;;4.70;97.70;;;;;;5030573;28;20402;-75
2022/01/08 12:03:52;;;;;;;28.58;15.32;;;4.80;97.90;;;;;;5022746;28;20041;-74
2022/01/08 12:06:27;;;;;;;30.13;16.60;;;4.90;98.00;;;;;;5025880;28;20037;-74
2022/01/08 12:11:50;;;;;;;34.75;16.10;;;4.80;97.10;;;;;;5023205;28;20116;-70
2022/01/08 12:14:20;;;;;;;21.45;11.23;;;4.70;96.80;;;;;;5049286;28;20056;-71
2022/01/08 12:16:48;;;;;;;24.90;13.50;;;4.80;98.00;;;;;;5025096;28;20029;-71
2022/01/08 12:19:27;;;;;;;26.23;15.13;;;4.90;97.50;;;;;;5020325;28;20680;-74
2022/01/08 12:21:53;;;;;;;26.88;15.05;;;4.90;97.20;;;;;;5020645;28;20064;-74
2022/01/08 12:24:28;;;;;;;23.65;13.15;;;5.00;97.40;;;;;;5021981;28;20033;-74
2022/01/08 12:26:55;;;;;;;19.95;10.65;;;5.00;97.40;;;;;;5021795;28;20033;-75
2022/01/08 12:29:38;;;;;;;20.17;13.15;;;4.90;97.20;;;;;;5023178;28;20033;-74
2022/01/08 12:32:36;;;;;;;29.15;12.25;;;4.90;97.30;;;;;;5022933;28;20060;-74
2022/01/08 12:35:14;;;;;;;24.75;11.50;;;5.00;97.20;;;;;;5022050;28;20060;-73
2022/01/08 12:37:45;;;;;;;21.38;11.48;;;5.00;97.10;;;;;;5035677;28;20559;-74
2022/01/08 12:40:30;;;;;;;22.67;12.02;;;5.10;97.40;;;;;;5022963;28;20742;-74
2022/01/08 12:42:56;;;;;;;23.73;13.18;;;5.20;96.90;;;;;;5018790;28;20136;-73
2022/01/08 12:45:41;;;;;;;25.05;11.68;;;5.20;96.80;;;;;;5022018;28;20128;-75
2022/01/08 12:48:09;;;;;;;20.50;10.60;;;5.20;96.90;;;;;;5021691;28;20089;-73
2022/01/08 12:50:38;;;;;;;19.75;11.80;;;5.30;97.30;;;;;;5017883;28;20064;-75
2022/01/08 12:53:07;;;;;;;21.83;10.63;;;5.40;96.70;;;;;;5018385;28;20041;-74
2022/01/08 12:55:39;;;;;;;19.55;10.20;;;5.30;96.70;;;;;;5022095;28;20040;-74
2022/01/08 12:58:14;;;;;;;20.25;10.90;;;5.40;96.50;;;;;;5019260;28;20079;-72
2022/01/08 13:01:03;;;;;;;23.45;10.88;;;5.40;96.50;;;;;;5021419;28;20029;-73
2022/01/08 13:03:31;;;;;;;21.15;8.75;;;5.20;96.30;;;;;;5020358;28;20104;-74